Flight Track Log - Related Links

Times and Time Zones

All times are in EST time to prevent confusion due to time zone crossing. See the EJA829P flight status page for this flight to view local times or setup timezone preferences in your user account.

Time Position Orientation Groundspeed Altitude Reporting Facility
EST Latitude Longitude Course Direction KTS MPH feet Rate Location/Type
Wed 12:31:45 PM 40.8333 -74.3667 223° Southwest 224 258 2,000  Level New York TRACON
Wed 12:32:45 PM 40.8000 -74.3000 123° Southeast 226 260 2,800 1,900 Climbing New York TRACON
Wed 12:33:45 PM 40.7333 -74.2667 159° South 301 346 5,800 1,600 Climbing New York TRACON
Wed 12:34:45 PM 40.6500 -74.2667 180° South 279 321 6,000 67 Climbing New York TRACON
Wed 12:36:44 PM 40.5164 -74.2600 178° South 278 320 6,000  Level New York Center
Wed 12:37:00 PM 40.3233 -74.8561 223° Southwest  Level Estimated
Wed 12:37:44 PM 40.4383 -74.2231 160° South 273 314 6,000  Level New York Center
Wed 12:38:44 PM 40.3706 -74.1897 159° South 284 327 6,100 2,450 Climbing New York Center
Wed 12:39:44 PM 40.2856 -74.1692 170° South 284 327 10,900 4,250 Climbing New York Center
Wed 12:40:44 PM 40.2036 -74.1953 194° South 312 359 14,600 3,050 Climbing New York Center
Wed 12:41:44 PM 40.0881 -74.2275 192° South 365 420 17,000 2,200 Climbing New York Center
Wed 12:42:44 PM 39.9822 -74.2764 199° South 402 463 19,000 923 Climbing New York Center
Wed 12:44:33 PM 39.8244 -74.4244 216° Southwest 410 472 19,600 462 Climbing Washington Center
Wed 12:45:33 PM 39.7442 -74.5308 226° Southwest 410 472 20,300 1,140 Climbing Washington Center
Wed 12:46:34 PM 39.6617 -74.6372 225° Southwest 416 479 21,900 843 Climbing Washington Center
Wed 12:47:34 PM 39.5731 -74.7542 226° Southwest 437 503 22,000 51 Climbing Washington Center
Wed 12:48:32 PM 39.4781 -74.8792 225° Southwest 442 509 22,000  Level Washington Center
Wed 12:49:32 PM 39.3911 -74.9928 225° Southwest 442 509 22,000  Level Washington Center
Wed 12:50:33 PM 39.3042 -75.1061 225° Southwest 442 509 22,000 942 Level Washington Center
Wed 12:51:33 PM 39.1833 -75.1658 201° Southwest 442 509 23,900 1,017 Climbing Washington Center
Wed 12:52:31 PM 39.0586 -75.2228 200° South 456 525 24,000 50 Climbing Washington Center
Wed 12:53:32 PM 38.9317 -75.2686 196° South 474 545 24,000  Level Washington Center
Wed 12:54:33 PM 38.8067 -75.3200 198° South 474 545 24,000  Level Washington Center
Wed 12:55:34 PM 38.6817 -75.3708 198° South 474 545 24,000  Level Washington Center
Wed 12:56:34 PM 38.5567 -75.4244 199° South 479 551 24,000  Level Washington Center
Wed 12:57:34 PM 38.4294 -75.4778 198° South 479 551 24,000 -559 Level Washington Center
Wed 12:58:32 PM 38.3108 -75.5336 200° South 479 551 22,900 -1,109 Descending Washington Center
Wed 12:59:33 PM 38.2044 -75.5969 205° Southwest 474 545 21,800 -1,131 Descending Washington Center
Wed 01:00:34 PM 38.0958 -75.6656 206° Southwest 454 522 20,600 -1,109 Descending Washington Center
Wed 01:01:32 PM 37.9875 -75.7339 206° Southwest 443 510 19,600 -1,008 Descending Washington Center
Wed 01:02:33 PM 37.8831 -75.7944 205° Southwest 425 489 18,600 -1,059 Descending Washington Center
Wed 01:02:57 PM 37.8308 -75.8311 209° Southwest 413 475 18,100 -1,000 Descending Washington Center
Wed 01:03:27 PM 37.7744 -75.8650 205° Southwest 412 474 17,700 -833 Descending Washington Center
Wed 01:03:33 PM 37.7786 -75.8572 56° Northeast 425 489 17,600 -984 Descending Washington Center
Wed 01:04:28 PM 37.6722 -75.9275 208° Southwest 409 471 16,700 -984 Descending Washington Center
Wed 01:04:34 PM 37.6806 -75.9250 13° North 415 478 16,600 -1,500 Descending Washington Center
Wed 01:05:32 PM 37.5739 -75.9769 201° Southwest 415 478 15,100 -1,617 Descending Washington Center
Wed 01:06:29 PM 37.4964 -76.0786 226° Southwest 369 425 13,500 -1,500 Descending Washington Center
Wed 01:06:32 PM 37.5028 -76.0708 44° Northeast 386 444 13,600 -1,969 Climbing Washington Center
Wed 01:07:33 PM 37.4606 -76.1806 244° Southwest 363 418 11,400 -2,288 Descending Washington Center
Wed 01:08:30 PM 37.4494 -76.2981 263° West 282 325 9,100 -2,200 Descending Washington Center
Wed 01:08:33 PM 37.4494 -76.2850 90° East 324 373 9,200  Climbing Washington Center
Wed 01:09:34 PM 37.4364 -76.3792 260° West 297 342 9,100 -50 Descending Washington Center
Wed 01:10:32 PM 37.4233 -76.4731 260° West 284 327 9,100  Level Washington Center
Wed 01:11:33 PM 37.4100 -76.5669 260° West 279 321 9,100  Level Washington Center
Wed 01:12:34 PM 37.3967 -76.6611 260° West 274 315 9,100 -308 Level Washington Center
Wed 01:14:48 PM 37.3667 -76.8833 260° West 272 313 8,100 -588 Descending Potomac TRACON
Wed 01:15:48 PM 37.3500 -76.9833 258° West 276 318 7,200 -1,667 Descending Potomac TRACON
Wed 01:16:54 PM 37.3500 -77.0667 270° West 245 282 4,600 -1,800 Descending Potomac TRACON
Wed 01:17:48 PM 37.3667 -77.1500 284° West 247 284 3,600 -1,316 Descending Potomac TRACON
Wed 01:18:48 PM 37.3833 -77.2333 284° West 236 272 2,100 -900 Descending Potomac TRACON
Wed 01:19:48 PM 37.4167 -77.3000 302° West 219 252 1,800 -350 Descending Potomac TRACON
Wed 01:20:48 PM 37.4500 -77.3333 322° Northwest 156 180 1,400 -632 Descending Potomac TRACON
Wed 01:21:42 PM 37.4833 -77.3333 360° North 129 148 600 -889 Descending Potomac TRACON
Wed 01:24:00 PM 37.5000 -77.3167 322° Northwest  Level FlightAware Approximate
Wed 01:31:00 PM 37.5052 -77.3197 322° Northwest  Level Estimated

Login

Don't have an account? Register now (free) for customized features, flight alerts, and more!